sensor_id;sensor_type;location;lat;lon;timestamp;pressure;altitude;pressure_sealevel;temperature;humidity
83373;BME280;73281;50.882;5.984;2023-12-14T00:01:13;98271.47;;;17.95;67.02
83373;BME280;73281;50.882;5.984;2023-12-14T00:03:39;98274.50;;;17.97;67.14
83373;BME280;73281;50.882;5.984;2023-12-14T00:06:07;98281.94;;;17.96;66.84
83373;BME280;73281;50.882;5.984;2023-12-14T00:08:33;98285.16;;;17.95;66.84
83373;BME280;73281;50.882;5.984;2023-12-14T00:11:03;98285.91;;;17.95;66.91
83373;BME280;73281;50.882;5.984;2023-12-14T00:13:29;98290.16;;;17.96;67.09
83373;BME280;73281;50.882;5.984;2023-12-14T00:15:54;98288.19;;;17.97;67.65
83373;BME280;73281;50.882;5.984;2023-12-14T00:18:19;98293.22;;;17.98;67.27
83373;BME280;73281;50.882;5.984;2023-12-14T00:20:45;98301.44;;;17.98;67.24
83373;BME280;73281;50.882;5.984;2023-12-14T00:23:10;98297.91;;;17.98;67.16
83373;BME280;73281;50.882;5.984;2023-12-14T00:25:35;98304.94;;;17.99;67.23
83373;BME280;73281;50.882;5.984;2023-12-14T00:28:01;98308.41;;;17.99;67.19
83373;BME280;73281;50.882;5.984;2023-12-14T00:30:26;98320.16;;;18.00;67.09
83373;BME280;73281;50.882;5.984;2023-12-14T00:32:51;98328.66;;;18.02;66.92
83373;BME280;73281;50.882;5.984;2023-12-14T00:35:17;98329.13;;;18.00;67.13
83373;BME280;73281;50.882;5.984;2023-12-14T00:37:42;98328.66;;;18.02;67.24
83373;BME280;73281;50.882;5.984;2023-12-14T00:40:08;98330.19;;;18.03;67.34
83373;BME280;73281;50.882;5.984;2023-12-14T00:42:33;98339.16;;;18.03;67.45
83373;BME280;73281;50.882;5.984;2023-12-14T00:44:58;98344.19;;;18.05;67.58
83373;BME280;73281;50.882;5.984;2023-12-14T00:47:24;98349.66;;;18.05;67.38
83373;BME280;73281;50.882;5.984;2023-12-14T00:49:49;98352.38;;;18.05;67.60
83373;BME280;73281;50.882;5.984;2023-12-14T00:52:14;98361.38;;;18.05;67.81
83373;BME280;73281;50.882;5.984;2023-12-14T00:54:40;98364.13;;;18.05;67.83
83373;BME280;73281;50.882;5.984;2023-12-14T00:57:05;98367.63;;;18.06;67.95
83373;BME280;73281;50.882;5.984;2023-12-14T00:59:30;98373.09;;;18.06;67.93
83373;BME280;73281;50.882;5.984;2023-12-14T01:01:56;98375.84;;;18.06;67.98
83373;BME280;73281;50.882;5.984;2023-12-14T01:04:21;98384.78;;;18.06;68.07
83373;BME280;73281;50.882;5.984;2023-12-14T01:06:47;98393.00;;;18.06;68.05
83373;BME280;73281;50.882;5.984;2023-12-14T01:09:12;98396.06;;;18.08;67.75
83373;BME280;73281;50.882;5.984;2023-12-14T01:11:37;98398.03;;;18.08;67.78
83373;BME280;73281;50.882;5.984;2023-12-14T01:14:03;98395.75;;;18.06;67.78
83373;BME280;73281;50.882;5.984;2023-12-14T01:16:29;98416.13;;;18.05;67.77
83373;BME280;73281;50.882;5.984;2023-12-14T01:18:54;98418.84;;;18.05;67.65
83373;BME280;73281;50.882;5.984;2023-12-14T01:21:20;98422.81;;;18.04;67.59
83373;BME280;73281;50.882;5.984;2023-12-14T01:23:45;98430.59;;;18.06;67.62
83373;BME280;73281;50.882;5.984;2023-12-14T01:26:10;98432.53;;;18.05;67.64
83373;BME280;73281;50.882;5.984;2023-12-14T01:28:36;98431.31;;;18.06;67.66
83373;BME280;73281;50.882;5.984;2023-12-14T01:31:01;98441.84;;;18.08;67.84
83373;BME280;73281;50.882;5.984;2023-12-14T01:33:26;98446.09;;;18.09;67.78
83373;BME280;73281;50.882;5.984;2023-12-14T01:35:52;98449.75;;;18.06;68.10
83373;BME280;73281;50.882;5.984;2023-12-14T01:38:17;98455.22;;;18.06;68.08
83373;BME280;73281;50.882;5.984;2023-12-14T01:40:42;98464.19;;;18.06;67.96
83373;BME280;73281;50.882;5.984;2023-12-14T01:43:09;98465.69;;;18.07;67.85
83373;BME280;73281;50.882;5.984;2023-12-14T01:45:36;98471.16;;;18.07;67.76
83373;BME280;73281;50.882;5.984;2023-12-14T01:48:01;98469.66;;;18.06;67.86
83373;BME280;73281;50.882;5.984;2023-12-14T01:50:27;98472.38;;;18.06;67.63
83373;BME280;73281;50.882;5.984;2023-12-14T01:52:52;98475.13;;;18.06;67.68
83373;BME280;73281;50.882;5.984;2023-12-14T01:55:18;98474.81;;;18.04;67.65
83373;BME280;73281;50.882;5.984;2023-12-14T01:57:43;98484.56;;;18.05;67.54
83373;BME280;73281;50.882;5.984;2023-12-14T02:00:19;98478.00;;;18.03;67.24
83373;BME280;73281;50.882;5.984;2023-12-14T02:02:47;98483.78;;;18.05;67.21
83373;BME280;73281;50.882;5.984;2023-12-14T02:05:13;98491.25;;;18.04;67.16
83373;BME280;73281;50.882;5.984;2023-12-14T02:07:38;98493.97;;;18.04;67.29
83373;BME280;73281;50.882;5.984;2023-12-14T02:10:04;98493.53;;;18.06;67.10
83373;BME280;73281;50.882;5.984;2023-12-14T02:12:29;98507.22;;;18.06;66.86
83373;BME280;73281;50.882;5.984;2023-12-14T02:14:56;98505.22;;;18.06;66.87
83373;BME280;73281;50.882;5.984;2023-12-14T02:17:21;98510.72;;;18.06;66.86
83373;BME280;73281;50.882;5.984;2023-12-14T02:19:47;98514.66;;;18.05;66.44
83373;BME280;73281;50.882;5.984;2023-12-14T02:22:12;98516.19;;;18.06;66.32
83373;BME280;73281;50.882;5.984;2023-12-14T02:24:37;98515.44;;;18.06;66.96
83373;BME280;73281;50.882;5.984;2023-12-14T02:27:03;98527.13;;;18.06;66.74
83373;BME280;73281;50.882;5.984;2023-12-14T02:29:28;98526.38;;;18.06;66.13
83373;BME280;73281;50.882;5.984;2023-12-14T02:31:54;98534.91;;;18.08;66.76
83373;BME280;73281;50.882;5.984;2023-12-14T02:34:19;98546.28;;;18.06;66.52
83373;BME280;73281;50.882;5.984;2023-12-14T02:36:45;98551.31;;;18.08;67.03
83373;BME280;73281;50.882;5.984;2023-12-14T02:39:11;98547.81;;;18.07;67.23
83373;BME280;73281;50.882;5.984;2023-12-14T02:41:36;98561.50;;;18.07;67.28
83373;BME280;73281;50.882;5.984;2023-12-14T02:44:02;98567.75;;;18.08;67.46
83373;BME280;73281;50.882;5.984;2023-12-14T02:46:27;98570.94;;;18.06;67.54
83373;BME280;73281;50.882;5.984;2023-12-14T02:48:52;98576.75;;;18.08;67.46
83373;BME280;73281;50.882;5.984;2023-12-14T02:51:18;98581.88;;;18.06;67.58
83373;BME280;73281;50.882;5.984;2023-12-14T02:53:43;98583.41;;;18.07;67.37
83373;BME280;73281;50.882;5.984;2023-12-14T02:56:09;98590.09;;;18.06;66.54
83373;BME280;73281;50.882;5.984;2023-12-14T02:58:35;98590.44;;;18.08;66.81
83373;BME280;73281;50.882;5.984;2023-12-14T03:01:00;98595.91;;;18.08;66.65
83373;BME280;73281;50.882;5.984;2023-12-14T03:03:26;98606.06;;;18.08;66.84
83373;BME280;73281;50.882;5.984;2023-12-14T03:05:51;98608.81;;;18.08;66.60
83373;BME280;73281;50.882;5.984;2023-12-14T03:08:16;98609.25;;;18.06;66.66
83373;BME280;73281;50.882;5.984;2023-12-14T03:10:42;98622.50;;;18.08;66.63
83373;BME280;73281;50.882;5.984;2023-12-14T03:13:07;98624.78;;;18.09;66.32
83373;BME280;73281;50.882;5.984;2023-12-14T03:15:33;98628.75;;;18.08;65.97
83373;BME280;73281;50.882;5.984;2023-12-14T03:17:58;98633.44;;;18.08;66.48
83373;BME280;73281;50.882;5.984;2023-12-14T03:20:24;98638.16;;;18.07;66.14
83373;BME280;73281;50.882;5.984;2023-12-14T03:22:49;98636.63;;;18.06;66.17
83373;BME280;73281;50.882;5.984;2023-12-14T03:25:14;98647.91;;;18.08;66.19
83373;BME280;73281;50.882;5.984;2023-12-14T03:27:40;98645.28;;;18.05;66.00
83373;BME280;73281;50.882;5.984;2023-12-14T03:30:06;98646.84;;;18.06;66.10
83373;BME280;73281;50.882;5.984;2023-12-14T03:32:34;98648.78;;;18.05;66.07
83373;BME280;73281;50.882;5.984;2023-12-14T03:35:00;98652.75;;;18.04;65.85
83373;BME280;73281;50.882;5.984;2023-12-14T03:37:25;98651.19;;;18.03;65.80
83373;BME280;73281;50.882;5.984;2023-12-14T03:39:51;98658.53;;;18.06;65.72
83373;BME280;73281;50.882;5.984;2023-12-14T03:42:16;98661.59;;;18.08;65.61
83373;BME280;73281;50.882;5.984;2023-12-14T03:44:41;98660.38;;;18.09;65.26
83373;BME280;73281;50.882;5.984;2023-12-14T03:47:07;98665.09;;;18.09;65.43
83373;BME280;73281;50.882;5.984;2023-12-14T03:49:37;98665.53;;;18.07;65.45
83373;BME280;73281;50.882;5.984;2023-12-14T03:52:03;98680.13;;;18.04;65.55
83373;BME280;73281;50.882;5.984;2023-12-14T03:54:29;98681.75;;;18.02;65.61
83373;BME280;73281;50.882;5.984;2023-12-14T03:56:54;98688.78;;;18.03;64.14
83373;BME280;73281;50.882;5.984;2023-12-14T03:59:20;98693.16;;;18.00;65.26
83373;BME280;73281;50.882;5.984;2023-12-14T04:01:45;98697.09;;;17.99;65.54
83373;BME280;73281;50.882;5.984;2023-12-14T04:04:10;98698.28;;;17.98;65.39
83373;BME280;73281;50.882;5.984;2023-12-14T04:06:36;98701.03;;;17.98;65.70
83373;BME280;73281;50.882;5.984;2023-12-14T04:09:01;98702.25;;;17.97;65.35
83373;BME280;73281;50.882;5.984;2023-12-14T04:11:26;98695.56;;;17.98;65.85
83373;BME280;73281;50.882;5.984;2023-12-14T04:13:52;98716.25;;;17.99;65.68
83373;BME280;73281;50.882;5.984;2023-12-14T04:16:21;98716.25;;;17.99;65.67
83373;BME280;73281;50.882;5.984;2023-12-14T04:18:47;98712.31;;;18.00;65.80
83373;BME280;73281;50.882;5.984;2023-12-14T04:21:13;98717.03;;;18.00;65.95
83373;BME280;73281;50.882;5.984;2023-12-14T04:23:38;98722.50;;;18.00;65.55
83373;BME280;73281;50.882;5.984;2023-12-14T04:26:04;98732.66;;;17.99;65.76
83373;BME280;73281;50.882;5.984;2023-12-14T04:28:29;98736.63;;;17.98;65.64
83373;BME280;73281;50.882;5.984;2023-12-14T04:30:54;98734.66;;;17.99;65.92
83373;BME280;73281;50.882;5.984;2023-12-14T04:33:20;98735.84;;;17.98;65.37
83373;BME280;73281;50.882;5.984;2023-12-14T04:35:45;98742.09;;;17.98;65.49
83373;BME280;73281;50.882;5.984;2023-12-14T04:38:11;98746.34;;;17.99;65.16
83373;BME280;73281;50.882;5.984;2023-12-14T04:40:36;98751.81;;;17.99;65.49
83373;BME280;73281;50.882;5.984;2023-12-14T04:43:01;98753.81;;;17.99;65.62
83373;BME280;73281;50.882;5.984;2023-12-14T04:45:27;98754.56;;;17.99;65.79
83373;BME280;73281;50.882;5.984;2023-12-14T04:47:53;98756.56;;;17.99;65.81
83373;BME280;73281;50.882;5.984;2023-12-14T04:50:18;98761.25;;;17.98;65.64
83373;BME280;73281;50.882;5.984;2023-12-14T04:52:43;98765.06;;;18.01;65.68
83373;BME280;73281;50.882;5.984;2023-12-14T04:55:09;98775.28;;;18.00;65.58
83373;BME280;73281;50.882;5.984;2023-12-14T04:57:35;98771.75;;;18.00;65.54
83373;BME280;73281;50.882;5.984;2023-12-14T05:00:01;98768.25;;;17.99;65.85
83373;BME280;73281;50.882;5.984;2023-12-14T05:02:27;98772.19;;;17.98;65.90
83373;BME280;73281;50.882;5.984;2023-12-14T05:04:53;98773.72;;;17.99;65.92
83373;BME280;73281;50.882;5.984;2023-12-14T05:07:18;98786.97;;;18.01;65.89
83373;BME280;73281;50.882;5.984;2023-12-14T05:09:43;98788.19;;;18.00;65.97
83373;BME280;73281;50.882;5.984;2023-12-14T05:12:09;98791.34;;;17.98;65.91
83373;BME280;73281;50.882;5.984;2023-12-14T05:14:34;98798.34;;;17.99;65.87
83373;BME280;73281;50.882;5.984;2023-12-14T05:16:59;98800.34;;;17.99;65.76
83373;BME280;73281;50.882;5.984;2023-12-14T05:19:25;98796.41;;;18.00;65.60
83373;BME280;73281;50.882;5.984;2023-12-14T05:21:50;98803.84;;;17.99;65.46
83373;BME280;73281;50.882;5.984;2023-12-14T05:24:15;98806.56;;;17.99;65.51
83373;BME280;73281;50.882;5.984;2023-12-14T05:26:41;98812.91;;;17.96;65.21
83373;BME280;73281;50.882;5.984;2023-12-14T05:29:06;98822.34;;;17.95;65.45
83373;BME280;73281;50.882;5.984;2023-12-14T05:31:31;98834.50;;;17.94;65.64
83373;BME280;73281;50.882;5.984;2023-12-14T05:33:58;98834.16;;;17.92;65.29
83373;BME280;73281;50.882;5.984;2023-12-14T05:36:23;98833.41;;;17.92;65.19
83373;BME280;73281;50.882;5.984;2023-12-14T05:38:48;98850.16;;;17.94;65.33
83373;BME280;73281;50.882;5.984;2023-12-14T05:41:14;98855.31;;;17.92;65.29
83373;BME280;73281;50.882;5.984;2023-12-14T05:43:39;98857.59;;;17.93;65.31
83373;BME280;73281;50.882;5.984;2023-12-14T05:46:05;98863.09;;;17.93;64.90
83373;BME280;73281;50.882;5.984;2023-12-14T05:48:30;98862.31;;;17.93;65.14
83373;BME280;73281;50.882;5.984;2023-12-14T05:50:56;98875.22;;;17.92;65.45
83373;BME280;73281;50.882;5.984;2023-12-14T05:53:22;98877.19;;;17.92;65.54
83373;BME280;73281;50.882;5.984;2023-12-14T05:55:47;98881.13;;;17.91;65.38
83373;BME280;73281;50.882;5.984;2023-12-14T05:58:13;98887.38;;;17.91;65.01
83373;BME280;73281;50.882;5.984;2023-12-14T06:00:38;98891.63;;;17.92;65.13
83373;BME280;73281;50.882;5.984;2023-12-14T06:03:05;98902.25;;;17.90;65.12
83373;BME280;73281;50.882;5.984;2023-12-14T06:05:30;98898.75;;;17.90;65.39
83373;BME280;73281;50.882;5.984;2023-12-14T06:07:56;98908.91;;;17.89;65.41
83373;BME280;73281;50.882;5.984;2023-12-14T06:10:21;98917.91;;;17.90;65.33
83373;BME280;73281;50.882;5.984;2023-12-14T06:12:47;98917.59;;;17.88;65.30
83373;BME280;73281;50.882;5.984;2023-12-14T06:15:12;98928.84;;;17.90;65.40
83373;BME280;73281;50.882;5.984;2023-12-14T06:17:38;98926.13;;;17.90;65.11
83373;BME280;73281;50.882;5.984;2023-12-14T06:20:06;98935.09;;;17.90;65.11
83373;BME280;73281;50.882;5.984;2023-12-14T06:22:34;98939.03;;;17.89;64.91
83373;BME280;73281;50.882;5.984;2023-12-14T06:25:00;98954.69;;;17.89;64.93
83373;BME280;73281;50.882;5.984;2023-12-14T06:27:26;98952.81;;;17.86;64.85
83373;BME280;73281;50.882;5.984;2023-12-14T06:29:52;98955.22;;;17.84;64.66
83373;BME280;73281;50.882;5.984;2023-12-14T06:32:17;98954.78;;;17.85;64.64
83373;BME280;73281;50.882;5.984;2023-12-14T06:34:43;98963.00;;;17.85;63.70
83373;BME280;73281;50.882;5.984;2023-12-14T06:37:08;98953.69;;;17.83;64.33
83373;BME280;73281;50.882;5.984;2023-12-14T06:39:34;98963.88;;;17.82;64.76
83373;BME280;73281;50.882;5.984;2023-12-14T06:42:00;98962.31;;;17.81;64.95
83373;BME280;73281;50.882;5.984;2023-12-14T06:44:25;98969.00;;;17.80;64.93
83373;BME280;73281;50.882;5.984;2023-12-14T06:46:52;98973.69;;;17.80;64.86
83373;BME280;73281;50.882;5.984;2023-12-14T06:49:18;98971.41;;;17.78;65.03
83373;BME280;73281;50.882;5.984;2023-12-14T06:51:43;98969.44;;;17.79;65.12
83373;BME280;73281;50.882;5.984;2023-12-14T06:54:09;98978.44;;;17.79;64.73
83373;BME280;73281;50.882;5.984;2023-12-14T06:56:36;98988.50;;;17.82;65.01
83373;BME280;73281;50.882;5.984;2023-12-14T06:59:02;98996.38;;;17.80;64.32
83373;BME280;73281;50.882;5.984;2023-12-14T07:01:27;99001.19;;;17.76;63.84
83373;BME280;73281;50.882;5.984;2023-12-14T07:03:52;99004.34;;;17.75;63.48
83373;BME280;73281;50.882;5.984;2023-12-14T07:06:18;99016.13;;;17.72;63.31
83373;BME280;73281;50.882;5.984;2023-12-14T07:08:44;99015.81;;;17.70;62.80
83373;BME280;73281;50.882;5.984;2023-12-14T07:11:11;99024.03;;;17.70;62.06
83373;BME280;73281;50.882;5.984;2023-12-14T07:13:36;99037.28;;;17.71;61.40
83373;BME280;73281;50.882;5.984;2023-12-14T07:16:07;99045.91;;;17.70;61.02
83373;BME280;73281;50.882;5.984;2023-12-14T07:18:34;99047.09;;;17.69;60.51
83373;BME280;73281;50.882;5.984;2023-12-14T07:21:00;99063.63;;;17.65;60.43
83373;BME280;73281;50.882;5.984;2023-12-14T07:23:26;99069.88;;;17.66;60.27
83373;BME280;73281;50.882;5.984;2023-12-14T07:25:52;99076.50;;;17.65;60.09
83373;BME280;73281;50.882;5.984;2023-12-14T07:28:17;99073.78;;;17.65;59.99
83373;BME280;73281;50.882;5.984;2023-12-14T07:30:42;99085.50;;;17.65;59.98
83373;BME280;73281;50.882;5.984;2023-12-14T07:33:08;99085.50;;;17.65;59.61
83373;BME280;73281;50.882;5.984;2023-12-14T07:35:33;99085.50;;;17.65;59.49
83373;BME280;73281;50.882;5.984;2023-12-14T07:37:59;99089.94;;;17.75;59.17
83373;BME280;73281;50.882;5.984;2023-12-14T07:40:24;99094.59;;;17.91;58.35
83373;BME280;73281;50.882;5.984;2023-12-14T07:42:49;99088.00;;;18.04;57.47
83373;BME280;73281;50.882;5.984;2023-12-14T07:45:15;99100.19;;;18.16;57.44
83373;BME280;73281;50.882;5.984;2023-12-14T07:47:40;99101.09;;;18.25;56.84
83373;BME280;73281;50.882;5.984;2023-12-14T07:50:08;99101.69;;;18.33;56.23
83373;BME280;73281;50.882;5.984;2023-12-14T07:52:34;99110.84;;;18.42;56.34
83373;BME280;73281;50.882;5.984;2023-12-14T07:55:00;99120.81;;;18.49;56.25
83373;BME280;73281;50.882;5.984;2023-12-14T07:57:25;99123.47;;;18.52;56.10
83373;BME280;73281;50.882;5.984;2023-12-14T07:59:50;99135.84;;;18.57;55.74
83373;BME280;73281;50.882;5.984;2023-12-14T08:02:16;99133.47;;;18.59;55.94
83373;BME280;73281;50.882;5.984;2023-12-14T08:04:41;99138.50;;;18.60;55.73
83373;BME280;73281;50.882;5.984;2023-12-14T08:07:07;99144.84;;;18.57;56.16
83373;BME280;73281;50.882;5.984;2023-12-14T08:09:32;99149.56;;;18.57;55.96
83373;BME280;73281;50.882;5.984;2023-12-14T08:11:58;99157.69;;;18.60;55.69
83373;BME280;73281;50.882;5.984;2023-12-14T08:14:23;99166.22;;;18.62;55.53
83373;BME280;73281;50.882;5.984;2023-12-14T08:16:49;99168.97;;;18.62;55.69
83373;BME280;73281;50.882;5.984;2023-12-14T08:19:14;99172.94;;;18.61;55.48
83373;BME280;73281;50.882;5.984;2023-12-14T08:21:39;99176.44;;;18.62;55.29
83373;BME280;73281;50.882;5.984;2023-12-14T08:24:05;99181.56;;;18.60;55.46
83373;BME280;73281;50.882;5.984;2023-12-14T08:26:30;99196.91;;;18.57;55.42
83373;BME280;73281;50.882;5.984;2023-12-14T08:28:55;99202.41;;;18.57;55.41
83373;BME280;73281;50.882;5.984;2023-12-14T08:31:21;99201.28;;;18.55;55.27
83373;BME280;73281;50.882;5.984;2023-12-14T08:33:46;99200.94;;;18.53;55.38
83373;BME280;73281;50.882;5.984;2023-12-14T08:36:15;99196.69;;;18.52;55.09
83373;BME280;73281;50.882;5.984;2023-12-14T08:38:40;99199.41;;;18.52;54.06
83373;BME280;73281;50.882;5.984;2023-12-14T08:41:06;99210.81;;;18.50;53.89
83373;BME280;73281;50.882;5.984;2023-12-14T08:43:31;99212.00;;;18.49;54.16
83373;BME280;73281;50.882;5.984;2023-12-14T08:45:56;99216.97;;;18.54;53.24
83373;BME280;73281;50.882;5.984;2023-12-14T08:48:22;99221.16;;;18.59;52.35
83373;BME280;73281;50.882;5.984;2023-12-14T08:50:47;99232.97;;;18.56;52.81
83373;BME280;73281;50.882;5.984;2023-12-14T08:53:13;99233.94;;;18.49;53.47
83373;BME280;73281;50.882;5.984;2023-12-14T08:55:38;99246.97;;;18.45;53.55
83373;BME280;73281;50.882;5.984;2023-12-14T08:58:03;99248.50;;;18.46;53.56
83373;BME280;73281;50.882;5.984;2023-12-14T09:00:29;99254.75;;;18.47;53.36
83373;BME280;73281;50.882;5.984;2023-12-14T09:02:54;99248.72;;;18.52;53.14
83373;BME280;73281;50.882;5.984;2023-12-14T09:05:19;99253.34;;;18.55;53.12
83373;BME280;73281;50.882;5.984;2023-12-14T09:07:46;99260.28;;;18.59;53.00
83373;BME280;73281;50.882;5.984;2023-12-14T09:10:12;99256.66;;;18.62;52.90
83373;BME280;73281;50.882;5.984;2023-12-14T09:12:37;99268.75;;;18.65;52.56
83373;BME280;73281;50.882;5.984;2023-12-14T09:15:03;99260.09;;;18.66;52.58
83373;BME280;73281;50.882;5.984;2023-12-14T09:17:29;99270.97;;;18.70;52.75
83373;BME280;73281;50.882;5.984;2023-12-14T09:20:01;99276.44;;;18.70;52.50
83373;BME280;73281;50.882;5.984;2023-12-14T09:22:30;99276.44;;;18.70;52.54
83373;BME280;73281;50.882;5.984;2023-12-14T09:24:56;99278.56;;;18.78;52.41
83373;BME280;73281;50.882;5.984;2023-12-14T09:27:21;99283.63;;;18.80;52.44
83373;BME280;73281;50.882;5.984;2023-12-14T09:29:52;99285.94;;;18.81;52.15
83373;BME280;73281;50.882;5.984;2023-12-14T09:32:21;99290.22;;;18.82;52.29
83373;BME280;73281;50.882;5.984;2023-12-14T09:34:46;99301.19;;;18.82;51.91
83373;BME280;73281;50.882;5.984;2023-12-14T09:37:11;99302.72;;;18.83;51.99
83373;BME280;73281;50.882;5.984;2023-12-14T09:39:39;99304.78;;;18.79;52.14
83373;BME280;73281;50.882;5.984;2023-12-14T09:42:06;99307.88;;;18.81;51.89
83373;BME280;73281;50.882;5.984;2023-12-14T09:44:32;99321.56;;;18.81;51.96
83373;BME280;73281;50.882;5.984;2023-12-14T09:46:59;99327.06;;;18.81;51.80
83373;BME280;73281;50.882;5.984;2023-12-14T09:49:26;99331.41;;;18.79;51.98
83373;BME280;73281;50.882;5.984;2023-12-14T09:51:57;99338.03;;;18.81;51.77
83373;BME280;73281;50.882;5.984;2023-12-14T09:54:24;99338.44;;;18.80;51.83
83373;BME280;73281;50.882;5.984;2023-12-14T09:56:49;99337.34;;;18.77;51.86
83373;BME280;73281;50.882;5.984;2023-12-14T09:59:15;99348.31;;;18.77;51.58
83373;BME280;73281;50.882;5.984;2023-12-14T10:01:41;99354.97;;;18.76;51.78
83373;BME280;73281;50.882;5.984;2023-12-14T10:04:09;99355.41;;;18.75;51.32
83373;BME280;73281;50.882;5.984;2023-12-14T10:06:36;99346.84;;;18.73;51.46
83373;BME280;73281;50.882;5.984;2023-12-14T10:09:02;99348.06;;;18.72;51.56
83373;BME280;73281;50.882;5.984;2023-12-14T10:11:28;99353.97;;;18.70;51.46
83373;BME280;73281;50.882;5.984;2023-12-14T10:13:53;99357.56;;;18.67;51.59
83373;BME280;73281;50.882;5.984;2023-12-14T10:18:56;99362.78;;;18.62;51.66
83373;BME280;73281;50.882;5.984;2023-12-14T10:21:23;99367.84;;;18.63;51.70
83373;BME280;73281;50.882;5.984;2023-12-14T10:23:49;99374.50;;;18.62;51.61
83373;BME280;73281;50.882;5.984;2023-12-14T10:26:14;99370.22;;;18.61;51.73
83373;BME280;73281;50.882;5.984;2023-12-14T10:28:40;99378.81;;;18.63;51.86
83373;BME280;73281;50.882;5.984;2023-12-14T10:31:05;99382.97;;;18.68;51.83
83373;BME280;73281;50.882;5.984;2023-12-14T10:33:31;99393.09;;;18.71;51.55
83373;BME280;73281;50.882;5.984;2023-12-14T10:35:56;99391.47;;;18.73;51.44
83373;BME280;73281;50.882;5.984;2023-12-14T10:38:24;99401.13;;;18.78;51.51
83373;BME280;73281;50.882;5.984;2023-12-14T10:40:50;99404.22;;;18.80;51.31
83373;BME280;73281;50.882;5.984;2023-12-14T10:43:16;99406.13;;;18.83;51.47
83373;BME280;73281;50.882;5.984;2023-12-14T10:45:43;99410.72;;;18.86;51.10
83373;BME280;73281;50.882;5.984;2023-12-14T10:48:13;99409.53;;;18.87;51.08
83373;BME280;73281;50.882;5.984;2023-12-14T10:50:38;99407.13;;;18.89;51.00
83373;BME280;73281;50.882;5.984;2023-12-14T10:53:07;99416.47;;;18.91;51.14
83373;BME280;73281;50.882;5.984;2023-12-14T10:55:38;99420.34;;;18.94;50.76
83373;BME280;73281;50.882;5.984;2023-12-14T10:58:05;99418.34;;;18.94;50.91
83373;BME280;73281;50.882;5.984;2023-12-14T11:00:33;99423.41;;;18.96;50.99
83373;BME280;73281;50.882;5.984;2023-12-14T11:02:59;99424.19;;;18.96;50.88
83373;BME280;73281;50.882;5.984;2023-12-14T11:05:28;99421.88;;;18.95;50.72
83373;BME280;73281;50.882;5.984;2023-12-14T11:08:00;99432.06;;;18.94;50.90
83373;BME280;73281;50.882;5.984;2023-12-14T11:10:36;99433.25;;;18.93;50.97
83373;BME280;73281;50.882;5.984;2023-12-14T11:13:04;99425.03;;;18.93;50.95
83373;BME280;73281;50.882;5.984;2023-12-14T11:15:34;99441.50;;;18.93;50.51
83373;BME280;73281;50.882;5.984;2023-12-14T11:18:23;99435.66;;;18.91;50.47
83373;BME280;73281;50.882;5.984;2023-12-14T11:21:00;99440.38;;;18.91;50.45
83373;BME280;73281;50.882;5.984;2023-12-14T11:25:52;99447.94;;;18.87;50.43
83373;BME280;73281;50.882;5.984;2023-12-14T11:28:19;99455.38;;;18.86;50.31
83373;BME280;73281;50.882;5.984;2023-12-14T11:30:45;99457.75;;;18.84;50.58
83373;BME280;73281;50.882;5.984;2023-12-14T11:33:16;99455.00;;;18.84;50.68
83373;BME280;73281;50.882;5.984;2023-12-14T11:35:41;99455.47;;;18.83;50.46
83373;BME280;73281;50.882;5.984;2023-12-14T11:38:07;99462.91;;;18.82;50.39
83373;BME280;73281;50.882;5.984;2023-12-14T11:40:38;99462.97;;;18.79;50.42
83373;BME280;73281;50.882;5.984;2023-12-14T11:43:04;99459.13;;;18.76;50.38
83373;BME280;73281;50.882;5.984;2023-12-14T11:45:37;99457.59;;;18.75;50.62
83373;BME280;73281;50.882;5.984;2023-12-14T11:48:04;99457.59;;;18.75;50.42
83373;BME280;73281;50.882;5.984;2023-12-14T11:50:31;99463.50;;;18.74;50.51
83373;BME280;73281;50.882;5.984;2023-12-14T11:52:57;99463.84;;;18.76;50.53
83373;BME280;73281;50.882;5.984;2023-12-14T11:55:22;99465.38;;;18.77;50.43
83373;BME280;73281;50.882;5.984;2023-12-14T11:57:49;99468.19;;;18.73;50.75
83373;BME280;73281;50.882;5.984;2023-12-14T12:00:14;99469.75;;;18.74;50.57
83373;BME280;73281;50.882;5.984;2023-12-14T12:02:40;99465.38;;;18.77;50.58
83373;BME280;73281;50.882;5.984;2023-12-14T12:05:06;99466.06;;;18.81;50.46
83373;BME280;73281;50.882;5.984;2023-12-14T12:07:32;99467.63;;;18.82;50.50
83373;BME280;73281;50.882;5.984;2023-12-14T12:09:58;99468.28;;;18.86;50.41
83373;BME280;73281;50.882;5.984;2023-12-14T12:12:24;99471.41;;;18.88;50.58
83373;BME280;73281;50.882;5.984;2023-12-14T12:14:49;99476.03;;;18.91;50.35
83373;BME280;73281;50.882;5.984;2023-12-14T12:17:18;99473.28;;;18.91;49.93
83373;BME280;73281;50.882;5.984;2023-12-14T12:19:45;99481.09;;;18.92;49.95
83373;BME280;73281;50.882;5.984;2023-12-14T12:22:11;99477.91;;;18.94;49.84
83373;BME280;73281;50.882;5.984;2023-12-14T12:24:36;99477.03;;;18.97;49.65
83373;BME280;73281;50.882;5.984;2023-12-14T12:27:02;99487.56;;;18.98;49.97
83373;BME280;73281;50.882;5.984;2023-12-14T12:29:29;99487.94;;;19.00;50.02
83373;BME280;73281;50.882;5.984;2023-12-14T12:31:55;99484.41;;;19.00;49.94
83373;BME280;73281;50.882;5.984;2023-12-14T12:34:20;99486.41;;;18.99;49.78
83373;BME280;73281;50.882;5.984;2023-12-14T12:36:45;99489.56;;;18.98;49.81
83373;BME280;73281;50.882;5.984;2023-12-14T12:39:12;99492.72;;;18.96;49.97
83373;BME280;73281;50.882;5.984;2023-12-14T12:41:37;99499.41;;;18.95;49.93
83373;BME280;73281;50.882;5.984;2023-12-14T12:44:04;99501.44;;;18.91;50.28
83373;BME280;73281;50.882;5.984;2023-12-14T12:46:37;99501.56;;;18.88;50.39
83373;BME280;73281;50.882;5.984;2023-12-14T12:49:04;99510.56;;;18.88;50.08
83373;BME280;73281;50.882;5.984;2023-12-14T12:51:31;99508.25;;;18.87;50.16
83373;BME280;73281;50.882;5.984;2023-12-14T12:53:58;99514.16;;;18.85;50.18
83373;BME280;73281;50.882;5.984;2023-12-14T12:56:24;99504.72;;;18.86;49.89
83373;BME280;73281;50.882;5.984;2023-12-14T12:58:50;99514.16;;;18.85;50.33